Aviation Digital Data Service (ADDS)

Output produced by METARs form (1429 UTC 04 September 2015)
found at http://aviationweather.gov/adds/metars/
 
KLYH 041120Z 0412/0512 00000KT 6SM BR FEW035 
     FM041300 00000KT P6SM SCT060 BKN100 
     FM041900 05005KT 5SM SHRA VCTS BKN050CB 
     FM042300 03005KT P6SM VCSH OVC050 
     FM050300 05003KT 6SM BR SCT035 SCT080 
     FM050900 04002KT 2SM BR SCT003 BKN025